Time;durP1;ratioP1;P1;durP2;ratioP2;P2;SDS_P1;SDS_P2;PMS_P1;PMS_P2;Temp;Humidity;BMP_temperature;BMP_pressure;BME280_temperature;BME280_humidity;BME280_pressure;Samples;Min_cycle;Max_cycle;Signal;HPM_P1;HPM_P2
2023/04/04 00:00:13;;;;;;;4.57;3.03;;;3.30;99.90;;;;;;5072782;28;20056;-75
2023/04/04 00:02:39;;;;;;;5.03;3.10;;;3.30;99.90;;;;;;5072558;28;20058;-75
2023/04/04 00:05:06;;;;;;;5.25;2.78;;;4.00;99.90;;;;;;5072243;28;20044;-75
2023/04/04 00:07:32;;;;;;;3.90;2.80;;;3.20;99.90;;;;;;5071280;28;20041;-75
2023/04/04 00:09:58;;;;;;;6.10;3.28;;;3.20;99.90;;;;;;5072335;28;20076;-75
2023/04/04 00:12:24;;;;;;;3.10;2.80;;;3.10;99.90;;;;;;5072381;28;20052;-75
2023/04/04 00:14:50;;;;;;;3.25;2.95;;;3.00;99.90;;;;;;5072363;28;20044;-75
2023/04/04 00:17:16;;;;;;;6.18;3.63;;;3.00;99.90;;;;;;5087575;28;20051;-75
2023/04/04 00:19:42;;;;;;;4.45;3.70;;;3.00;99.90;;;;;;5072438;28;20053;-75
2023/04/04 00:22:08;;;;;;;5.10;2.97;;;3.80;99.90;;;;;;5072550;28;20056;-75
2023/04/04 00:24:34;;;;;;;3.50;3.20;;;3.00;99.90;;;;;;5072201;28;20044;-75
2023/04/04 00:27:00;;;;;;;3.95;3.30;;;3.00;99.90;;;;;;5072702;28;20041;-75
2023/04/04 00:29:26;;;;;;;6.68;3.45;;;3.00;99.90;;;;;;5072167;28;20051;-76
2023/04/04 00:31:52;;;;;;;5.05;3.13;;;3.00;99.90;;;;;;5071478;28;20048;-75
2023/04/04 00:34:17;;;;;;;4.03;2.90;;;3.00;99.90;;;;;;5071942;28;20123;-75
2023/04/04 00:36:43;;;;;;;4.82;3.55;;;3.10;99.90;;;;;;5072055;28;20127;-76
2023/04/04 00:39:09;;;;;;;6.82;3.10;;;3.50;99.90;;;;;;5072195;28;20094;-76
2023/04/04 00:41:35;;;;;;;7.03;3.47;;;3.00;99.90;;;;;;5070875;28;20053;-75
2023/04/04 00:44:00;;;;;;;4.75;3.33;;;3.00;99.90;;;;;;5072028;28;20047;-76
2023/04/04 00:46:28;;;;;;;5.80;3.80;;;3.00;99.90;;;;;;5087885;28;20467;-75
2023/04/04 00:48:54;;;;;;;3.92;2.85;;;2.90;99.90;;;;;;5072651;28;20044;-76
2023/04/04 00:51:20;;;;;;;4.20;3.08;;;2.90;99.90;;;;;;5072624;28;20119;-76
2023/04/04 00:53:46;;;;;;;6.20;4.35;;;2.90;99.90;;;;;;5072733;28;20075;-76
2023/04/04 00:56:14;;;;;;;4.28;3.20;;;2.80;99.90;;;;;;5071144;28;20447;-75
2023/04/04 00:58:41;;;;;;;4.22;3.40;;;3.30;99.90;;;;;;5072462;28;20040;-75
2023/04/04 01:01:07;;;;;;;3.97;3.20;;;2.80;99.90;;;;;;5087865;28;20450;-76
2023/04/04 01:03:34;;;;;;;3.67;3.30;;;2.80;99.90;;;;;;5109363;28;20060;-75
2023/04/04 01:06:00;;;;;;;4.57;3.47;;;2.80;99.90;;;;;;5076157;28;20154;-75
2023/04/04 01:08:28;;;;;;;5.75;3.78;;;3.00;99.90;;;;;;5075367;28;20448;-75
2023/04/04 01:10:54;;;;;;;5.25;3.90;;;2.90;99.90;;;;;;5075641;28;20080;-76
2023/04/04 01:13:20;;;;;;;6.20;3.60;;;3.00;99.90;;;;;;5076120;28;20109;-75
2023/04/04 01:15:47;;;;;;;5.57;3.95;;;2.80;99.90;;;;;;5075208;28;20052;-75
2023/04/04 01:18:17;;;;;;;5.32;3.83;;;2.80;99.90;;;;;;5075407;28;20051;-76
2023/04/04 01:20:53;;;;;;;5.15;3.83;;;3.30;99.90;;;;;;5075859;28;20119;-76
2023/04/04 01:23:22;;;;;;;5.20;3.72;;;2.80;99.90;;;;;;5075226;28;20044;-75
2023/04/04 01:25:47;;;;;;;4.53;3.40;;;2.80;99.90;;;;;;5075294;28;20044;-75
2023/04/04 01:28:13;;;;;;;8.80;4.95;;;2.80;99.90;;;;;;5075637;28;20136;-75
2023/04/04 01:30:41;;;;;;;4.57;3.88;;;2.70;99.90;;;;;;5075203;28;20476;-76
2023/04/04 01:33:19;;;;;;;5.90;4.50;;;2.70;99.90;;;;;;5075052;28;20053;-75
2023/04/04 01:36:02;;;;;;;8.05;4.55;;;2.60;99.90;;;;;;5075009;28;20453;-75
2023/04/04 01:39:00;;;;;;;6.57;3.97;;;2.50;99.90;;;;;;5075230;28;20128;-75
2023/04/04 01:41:27;;;;;;;9.38;4.63;;;2.40;99.90;;;;;;5074562;28;20048;-75
2023/04/04 01:43:55;;;;;;;5.22;4.32;;;2.60;99.90;;;;;;5074891;28;20052;-75
2023/04/04 01:46:22;;;;;;;7.53;4.57;;;2.40;99.90;;;;;;5108103;28;20385;-75
2023/04/04 01:48:47;;;;;;;5.75;3.90;;;2.50;99.90;;;;;;5074531;28;20044;-75
2023/04/04 01:51:13;;;;;;;6.78;4.75;;;2.30;99.90;;;;;;5074936;28;20098;-75
2023/04/04 01:53:39;;;;;;;7.00;4.95;;;2.60;99.90;;;;;;5074579;28;20177;-75
2023/04/04 01:56:05;;;;;;;5.03;4.07;;;2.20;99.90;;;;;;5090254;28;20108;-75
2023/04/04 01:58:31;;;;;;;5.18;4.10;;;2.20;99.90;;;;;;5074538;28;20055;-76
2023/04/04 02:00:57;;;;;;;8.48;4.50;;;2.20;99.90;;;;;;5074681;28;20071;-75
2023/04/04 02:03:22;;;;;;;7.35;4.70;;;2.20;99.90;;;;;;5074541;28;20048;-75
2023/04/04 02:05:48;;;;;;;4.63;3.97;;;2.20;99.90;;;;;;5073781;28;20123;-75
2023/04/04 02:08:16;;;;;;;5.68;4.40;;;2.60;99.90;;;;;;5074160;28;20076;-75
2023/04/04 02:10:42;;;;;;;6.35;4.30;;;2.00;99.90;;;;;;5074476;28;20080;-75
2023/04/04 02:13:08;;;;;;;8.40;5.18;;;2.00;99.90;;;;;;5073364;28;20067;-75
2023/04/04 02:15:34;;;;;;;6.40;4.80;;;2.00;99.90;;;;;;5073985;28;20413;-76
2023/04/04 02:18:00;;;;;;;5.72;5.22;;;2.50;99.90;;;;;;5073211;28;20052;-75
2023/04/04 02:20:26;;;;;;;6.05;4.88;;;2.00;99.90;;;;;;5073943;28;20083;-75
2023/04/04 02:22:53;;;;;;;5.70;4.22;;;2.00;99.90;;;;;;5074469;28;20480;-75
2023/04/04 02:25:21;;;;;;;5.15;4.22;;;2.10;99.90;;;;;;5074130;28;20386;-75
2023/04/04 02:27:46;;;;;;;5.00;4.03;;;2.10;99.90;;;;;;5073959;28;20056;-76
2023/04/04 02:30:13;;;;;;;6.38;4.07;;;2.80;99.90;;;;;;5073822;28;20131;-75
2023/04/04 02:32:38;;;;;;;7.88;5.32;;;2.10;99.90;;;;;;5074210;28;20056;-76
2023/04/04 02:35:05;;;;;;;6.30;4.60;;;2.10;99.90;;;;;;5074310;28;20044;-75
2023/04/04 02:37:30;;;;;;;5.47;4.50;;;1.90;99.90;;;;;;5072578;28;20351;-76
2023/04/04 02:39:56;;;;;;;6.00;4.38;;;2.00;99.90;;;;;;5074068;28;20063;-75
2023/04/04 02:42:22;;;;;;;5.97;4.40;;;1.80;99.90;;;;;;5073639;28;20060;-75
2023/04/04 02:44:47;;;;;;;6.57;4.28;;;1.80;99.90;;;;;;5073763;28;20044;-75
2023/04/04 02:47:13;;;;;;;4.50;4.05;;;1.80;99.90;;;;;;5073031;28;20048;-75
2023/04/04 02:49:39;;;;;;;6.72;4.32;;;1.80;99.90;;;;;;5073666;28;20376;-75
2023/04/04 02:52:04;;;;;;;5.10;4.30;;;2.70;99.90;;;;;;5073625;28;20048;-75
2023/04/04 02:54:30;;;;;;;4.97;4.38;;;1.80;99.90;;;;;;5073385;28;20053;-75
2023/04/04 02:56:56;;;;;;;7.90;5.13;;;1.70;99.90;;;;;;5073696;28;20125;-75
2023/04/04 02:59:22;;;;;;;6.20;5.60;;;1.70;99.90;;;;;;5073842;28;20098;-75
2023/04/04 03:01:47;;;;;;;6.22;4.35;;;1.60;99.90;;;;;;5073443;28;20391;-75
2023/04/04 03:04:13;;;;;;;6.50;5.18;;;1.60;99.90;;;;;;5073452;28;20045;-75
2023/04/04 03:06:42;;;;;;;5.90;4.53;;;1.70;99.90;;;;;;5073227;28;20129;-75
2023/04/04 03:09:08;;;;;;;7.15;4.38;;;2.20;99.90;;;;;;5073111;28;20049;-75
2023/04/04 03:11:33;;;;;;;11.70;4.97;;;1.70;99.90;;;;;;5073318;28;20067;-75
2023/04/04 03:13:59;;;;;;;6.15;5.22;;;1.70;99.90;;;;;;5072963;28;20041;-75
2023/04/04 03:16:25;;;;;;;5.43;4.80;;;1.90;99.90;;;;;;5072198;28;20055;-74
2023/04/04 03:18:51;;;;;;;5.35;4.13;;;1.50;99.90;;;;;;5072964;28;20461;-75
2023/04/04 03:21:17;;;;;;;5.38;4.47;;;1.40;99.90;;;;;;5073396;28;20082;-75
2023/04/04 03:23:43;;;;;;;6.78;4.50;;;1.30;99.90;;;;;;5105804;28;20048;-75
2023/04/04 03:26:09;;;;;;;6.03;4.45;;;1.30;99.90;;;;;;5072670;28;20040;-75
2023/04/04 03:28:35;;;;;;;6.28;4.65;;;1.60;99.90;;;;;;5072757;28;20051;-75
2023/04/04 03:31:05;;;;;;;5.45;4.72;;;1.40;99.90;;;;;;5072884;28;20044;-75
2023/04/04 03:33:32;;;;;;;6.53;4.72;;;1.40;99.90;;;;;;5071950;28;20442;-75
2023/04/04 03:35:58;;;;;;;10.55;5.82;;;1.60;99.90;;;;;;5072950;28;20114;-75
2023/04/04 03:38:24;;;;;;;6.15;4.78;;;1.40;99.90;;;;;;5072437;28;20053;-75
2023/04/04 03:40:59;;;;;;;8.38;5.15;;;1.70;99.90;;;;;;5073011;28;20075;-75
2023/04/04 03:43:25;;;;;;;8.45;5.03;;;1.10;99.90;;;;;;5072812;28;20472;-75
2023/04/04 03:45:51;;;;;;;6.10;5.05;;;1.00;99.90;;;;;;5071469;28;20049;-75
2023/04/04 03:48:16;;;;;;;7.72;5.03;;;0.90;99.90;;;;;;5088215;28;20139;-74
2023/04/04 03:50:42;;;;;;;7.13;5.03;;;0.90;99.90;;;;;;5072479;28;20052;-75
2023/04/04 03:53:08;;;;;;;6.57;5.43;;;1.60;99.90;;;;;;5072716;28;20461;-75
2023/04/04 03:55:33;;;;;;;8.32;5.05;;;1.20;99.90;;;;;;5072430;28;20048;-75
2023/04/04 03:57:59;;;;;;;5.90;5.28;;;1.30;99.90;;;;;;5072500;28;20041;-75
2023/04/04 04:00:25;;;;;;;6.05;5.15;;;1.40;99.90;;;;;;5089109;28;20048;-74
2023/04/04 04:02:51;;;;;;;5.40;4.72;;;1.40;99.90;;;;;;5072927;28;20056;-75
2023/04/04 04:05:17;;;;;;;6.47;5.05;;;1.50;99.90;;;;;;5072674;28;20048;-75
2023/04/04 04:07:44;;;;;;;7.43;5.40;;;1.40;99.90;;;;;;5072634;28;20093;-75
2023/04/04 04:10:11;;;;;;;6.18;5.28;;;1.20;99.90;;;;;;5072459;28;20048;-75
2023/04/04 04:12:36;;;;;;;6.53;5.00;;;1.20;99.90;;;;;;5072892;28;20048;-75
2023/04/04 04:15:03;;;;;;;6.13;4.72;;;1.30;99.90;;;;;;5072395;28;20123;-75
2023/04/04 04:17:28;;;;;;;8.27;4.80;;;1.20;99.90;;;;;;5072129;28;20131;-75
2023/04/04 04:19:55;;;;;;;6.97;5.32;;;1.10;99.90;;;;;;5072620;28;20084;-75
2023/04/04 04:22:20;;;;;;;8.40;5.72;;;1.00;99.90;;;;;;5072768;28;20041;-75
2023/04/04 04:24:46;;;;;;;7.85;5.68;;;1.00;99.90;;;;;;5072321;28;20537;-75
2023/04/04 04:27:12;;;;;;;7.38;5.20;;;1.10;99.90;;;;;;5072186;28;20052;-75
2023/04/04 04:29:37;;;;;;;7.13;5.47;;;1.10;99.90;;;;;;5072359;28;20044;-76
2023/04/04 04:32:03;;;;;;;7.07;5.00;;;1.10;99.90;;;;;;5072496;28;20060;-76
2023/04/04 04:34:29;;;;;;;7.95;5.85;;;0.80;99.90;;;;;;5072076;28;20051;-76
2023/04/04 04:36:54;;;;;;;6.50;4.72;;;1.10;99.90;;;;;;5073814;28;20040;-75
2023/04/04 04:39:20;;;;;;;6.18;5.13;;;1.80;99.90;;;;;;5075306;28;20057;-76
2023/04/04 04:41:46;;;;;;;8.38;5.15;;;0.80;99.90;;;;;;5076246;28;20056;-75
2023/04/04 04:44:14;;;;;;;7.60;5.22;;;0.70;99.90;;;;;;5076009;28;20097;-75
2023/04/04 04:46:40;;;;;;;5.80;4.82;;;0.60;99.90;;;;;;5075980;28;20082;-75
2023/04/04 04:49:06;;;;;;;6.47;4.75;;;0.50;99.90;;;;;;5075739;28;20065;-75
2023/04/04 04:51:31;;;;;;;5.97;4.68;;;0.50;99.90;;;;;;5075546;28;20047;-75
2023/04/04 04:53:57;;;;;;;6.55;4.97;;;0.50;99.90;;;;;;5075105;28;20502;-74
2023/04/04 04:56:23;;;;;;;5.70;5.10;;;0.60;99.90;;;;;;5075603;28;20067;-75
2023/04/04 04:58:49;;;;;;;5.50;4.90;;;0.60;99.90;;;;;;5075911;28;20060;-75
2023/04/04 05:01:15;;;;;;;5.95;5.13;;;0.60;99.90;;;;;;5074751;28;20056;-75
2023/04/04 05:03:41;;;;;;;6.18;5.35;;;0.70;99.90;;;;;;5075771;28;20101;-75
2023/04/04 05:06:07;;;;;;;7.40;5.70;;;0.80;99.90;;;;;;5075425;28;20074;-74
2023/04/04 05:08:32;;;;;;;6.97;5.40;;;1.00;99.90;;;;;;5091006;28;20419;-74
2023/04/04 05:10:58;;;;;;;9.77;5.28;;;1.00;99.90;;;;;;5090973;28;20047;-75
2023/04/04 05:13:24;;;;;;;6.63;5.13;;;1.30;99.90;;;;;;5075360;28;20106;-75
2023/04/04 05:15:49;;;;;;;7.80;5.63;;;1.00;99.90;;;;;;5074995;28;20063;-75
2023/04/04 05:18:15;;;;;;;6.53;5.72;;;0.90;99.90;;;;;;5075574;28;20135;-75
2023/04/04 05:20:41;;;;;;;6.35;5.35;;;1.50;99.90;;;;;;5075461;28;20532;-75
2023/04/04 05:23:07;;;;;;;7.50;5.60;;;1.30;99.90;;;;;;5090875;28;20081;-75
2023/04/04 05:25:33;;;;;;;7.03;5.30;;;1.20;99.90;;;;;;5075203;28;20098;-75
2023/04/04 05:27:58;;;;;;;8.30;5.38;;;1.60;99.90;;;;;;5075532;28;20098;-75
2023/04/04 05:30:24;;;;;;;6.35;5.07;;;1.30;99.90;;;;;;5075442;28;20556;-75
2023/04/04 05:32:51;;;;;;;7.40;5.20;;;1.30;99.90;;;;;;5075177;28;20044;-75
2023/04/04 05:35:17;;;;;;;6.55;5.07;;;2.40;99.90;;;;;;5074905;28;20095;-75
2023/04/04 05:37:43;;;;;;;6.90;5.28;;;1.20;99.90;;;;;;5075002;28;20079;-75
2023/04/04 05:40:09;;;;;;;10.02;5.88;;;1.60;99.90;;;;;;5089992;28;20057;-76
2023/04/04 05:42:35;;;;;;;7.88;5.47;;;1.40;99.90;;;;;;5074976;28;20063;-75
2023/04/04 05:45:01;;;;;;;8.27;5.97;;;1.90;99.90;;;;;;5090663;28;20427;-75
2023/04/04 05:47:26;;;;;;;7.30;5.57;;;1.60;99.90;;;;;;5074125;28;20044;-75
2023/04/04 05:49:52;;;;;;;8.18;5.47;;;1.70;99.90;;;;;;5073960;28;20048;-76
2023/04/04 05:52:17;;;;;;;8.80;6.85;;;1.80;99.90;;;;;;5074895;28;20512;-75
2023/04/04 05:54:43;;;;;;;8.15;5.13;;;3.00;99.90;;;;;;5073835;28;20048;-76
2023/04/04 05:57:09;;;;;;;10.23;6.90;;;1.70;99.90;;;;;;5074857;28;20104;-78
2023/04/04 05:59:35;;;;;;;5.35;4.82;;;1.80;99.90;;;;;;5074672;28;20477;-79
2023/04/04 06:02:01;;;;;;;5.70;4.50;;;1.80;99.90;;;;;;5073480;28;20174;-76
2023/04/04 06:04:27;;;;;;;6.90;4.53;;;1.80;99.90;;;;;;5074748;28;20127;-77
2023/04/04 06:06:52;;;;;;;4.72;4.30;;;1.80;99.90;;;;;;5074456;28;20041;-77
2023/04/04 06:09:18;;;;;;;5.18;4.50;;;2.00;99.90;;;;;;5074704;28;20507;-78
2023/04/04 06:11:44;;;;;;;5.05;4.35;;;1.70;99.90;;;;;;5073984;28;20052;-78
2023/04/04 06:14:10;;;;;;;8.25;4.57;;;1.70;99.90;;;;;;5074512;28;20098;-78
2023/04/04 06:16:36;;;;;;;6.60;4.15;;;1.60;99.90;;;;;;5074627;28;20040;-78
2023/04/04 06:19:02;;;;;;;7.47;4.03;;;1.70;99.90;;;;;;5074059;28;20485;-78
2023/04/04 06:21:28;;;;;;;10.35;4.22;;;1.70;99.90;;;;;;5073405;28;20127;-78
2023/04/04 06:23:53;;;;;;;4.18;3.83;;;1.80;99.90;;;;;;5074011;28;20044;-77
2023/04/04 06:26:19;;;;;;;5.20;4.00;;;2.00;99.90;;;;;;5072822;28;20051;-76
2023/04/04 06:28:48;;;;;;;5.32;4.13;;;1.90;99.90;;;;;;5074235;28;20051;-77
2023/04/04 06:31:15;;;;;;;6.80;5.05;;;2.30;99.90;;;;;;5074322;28;20044;-77
2023/04/04 06:33:40;;;;;;;4.20;3.80;;;2.00;99.90;;;;;;5074025;28;20395;-77
2023/04/04 06:36:06;;;;;;;7.75;4.20;;;2.00;99.90;;;;;;5073600;28;20047;-76
2023/04/04 06:38:32;;;;;;;4.28;3.42;;;2.10;99.90;;;;;;5073534;28;20481;-76
2023/04/04 06:40:57;;;;;;;4.57;3.67;;;2.10;99.90;;;;;;5073338;28;20056;-76
2023/04/04 06:43:24;;;;;;;4.70;3.42;;;2.50;99.90;;;;;;5072489;28;20056;-76
2023/04/04 06:45:49;;;;;;;6.28;3.70;;;3.80;99.90;;;;;;5073650;28;20048;-76
2023/04/04 06:48:15;;;;;;;4.72;3.75;;;2.30;99.90;;;;;;5073346;28;20044;-76
2023/04/04 06:50:41;;;;;;;6.10;3.95;;;2.40;99.90;;;;;;5072153;28;20550;-77
2023/04/04 06:53:07;;;;;;;5.18;3.78;;;2.50;99.90;;;;;;5073179;28;20052;-75
2023/04/04 06:55:34;;;;;;;5.82;3.95;;;2.50;99.90;;;;;;5073432;28;20114;-76
2023/04/04 06:58:00;;;;;;;5.57;4.07;;;2.60;99.90;;;;;;5073572;28;20053;-77
2023/04/04 07:00:25;;;;;;;4.93;4.03;;;3.10;99.90;;;;;;5072693;28;20477;-76
2023/04/04 07:02:58;;;;;;;5.07;4.05;;;2.80;99.90;;;;;;5073152;28;20056;-77
2023/04/04 07:05:24;;;;;;;5.95;4.65;;;2.90;99.90;;;;;;5072301;28;20040;-76
2023/04/04 07:07:56;;;;;;;5.30;3.72;;;2.90;99.90;;;;;;5073294;28;20334;-76
2023/04/04 07:10:24;;;;;;;4.35;3.95;;;3.10;99.90;;;;;;5073643;28;20060;-76
2023/04/04 07:12:50;;;;;;;7.63;3.92;;;3.20;99.90;;;;;;5073709;28;20048;-79
2023/04/04 07:15:16;;;;;;;7.32;4.15;;;3.20;99.90;;;;;;5073711;28;20400;-78
2023/04/04 07:17:42;;;;;;;4.32;3.92;;;3.70;99.90;;;;;;5073610;28;20066;-79
2023/04/04 07:20:08;;;;;;;4.68;3.42;;;3.70;99.90;;;;;;5073069;28;20044;-78
2023/04/04 07:22:38;;;;;;;5.10;3.80;;;3.90;99.90;;;;;;5072101;28;20037;-82
2023/04/04 07:25:05;;;;;;;7.57;4.20;;;4.10;99.90;;;;;;5072552;28;20520;-77
2023/04/04 07:27:30;;;;;;;4.10;3.65;;;4.10;99.90;;;;;;5072981;28;20052;-78
2023/04/04 07:29:56;;;;;;;4.35;3.60;;;5.00;99.90;;;;;;5072808;28;20060;-80
2023/04/04 07:32:22;;;;;;;4.43;3.55;;;5.30;99.90;;;;;;5072412;28;20037;-76
2023/04/04 07:34:49;;;;;;;4.28;3.10;;;7.00;99.90;;;;;;5072751;28;20052;-77
2023/04/04 07:37:15;;;;;;;7.85;2.58;;;8.40;99.90;;;;;;5072376;28;20040;-77
2023/04/04 07:39:41;;;;;;;6.20;3.17;;;9.70;99.90;;;;;;5073060;28;20134;-78
2023/04/04 07:42:07;;;;;;;2.63;2.42;;;10.30;99.90;;;;;;5073454;28;20102;-77
2023/04/04 07:44:33;;;;;;;7.32;2.45;;;11.10;99.90;;;;;;5072795;28;20052;-78
2023/04/04 07:46:59;;;;;;;2.83;2.53;;;12.00;99.90;;;;;;5072753;28;20048;-78
2023/04/04 07:49:24;;;;;;;4.15;3.60;;;12.40;99.90;;;;;;5072653;28;20119;-78
2023/04/04 07:51:50;;;;;;;3.30;2.28;;;12.90;99.90;;;;;;5088413;28;20088;-78
2023/04/04 07:54:16;;;;;;;5.20;2.25;;;13.30;98.70;;;;;;5072251;28;20048;-78
2023/04/04 07:56:41;;;;;;;3.50;2.47;;;13.50;93.80;;;;;;5072897;28;20101;-77
2023/04/04 07:59:07;;;;;;;3.65;2.53;;;13.60;93.60;;;;;;5071366;28;20090;-76
2023/04/04 08:01:33;;;;;;;4.72;2.47;;;14.10;96.90;;;;;;5071574;28;20044;-76
2023/04/04 08:03:58;;;;;;;5.60;2.10;;;13.70;94.20;;;;;;5072523;28;20137;-76
2023/04/04 08:06:24;;;;;;;5.03;2.92;;;13.90;93.00;;;;;;5072382;28;20476;-77
2023/04/04 08:08:51;;;;;;;4.78;2.40;;;13.70;92.90;;;;;;5072421;28;20467;-78
2023/04/04 08:11:17;;;;;;;5.78;2.58;;;13.90;94.00;;;;;;5072229;28;20413;-78
2023/04/04 08:13:43;;;;;;;4.65;2.38;;;14.20;92.70;;;;;;5072313;28;20044;-77
2023/04/04 08:16:09;;;;;;;4.13;2.50;;;14.40;94.00;;;;;;5088337;28;20059;-77
2023/04/04 08:18:34;;;;;;;3.47;2.40;;;14.90;93.60;;;;;;5072365;28;20123;-77
2023/04/04 08:21:00;;;;;;;2.58;1.83;;;15.20;91.80;;;;;;5072766;28;20041;-77
2023/04/04 08:23:26;;;;;;;4.85;2.38;;;15.20;91.10;;;;;;5072312;28;20424;-76
2023/04/04 08:25:52;;;;;;;3.58;2.20;;;14.30;80.90;;;;;;5071330;28;20044;-78
2023/04/04 08:28:18;;;;;;;2.67;2.03;;;14.20;90.20;;;;;;5072661;28;20086;-77
2023/04/04 08:30:44;;;;;;;5.60;2.08;;;14.10;90.90;;;;;;5072418;28;20045;-77
2023/04/04 08:33:09;;;;;;;2.70;1.90;;;13.80;90.30;;;;;;5072164;28;20421;-78
2023/04/04 08:35:35;;;;;;;2.10;1.60;;;14.00;90.50;;;;;;5072155;28;20056;-78
2023/04/04 08:38:04;;;;;;;2.40;1.58;;;14.10;88.70;;;;;;5072083;28;20045;-78
2023/04/04 08:40:31;;;;;;;7.45;2.25;;;14.00;85.50;;;;;;5072256;28;20061;-78
2023/04/04 08:42:58;;;;;;;3.58;2.00;;;14.30;85.50;;;;;;5072140;28;20086;-78
2023/04/04 08:45:26;;;;;;;3.50;1.67;;;14.70;83.40;;;;;;5072546;28;20052;-78
2023/04/04 08:47:54;;;;;;;3.03;1.80;;;14.50;79.60;;;;;;5072006;28;20051;-78
2023/04/04 08:50:20;;;;;;;4.15;1.98;;;14.30;75.80;;;;;;5071998;28;20060;-78
2023/04/04 08:52:46;;;;;;;4.50;2.05;;;14.40;82.60;;;;;;5071951;28;20056;-78
2023/04/04 08:55:12;;;;;;;4.85;1.63;;;14.50;79.90;;;;;;5072428;28;20061;-78
2023/04/04 08:57:38;;;;;;;2.00;1.80;;;14.20;76.80;;;;;;5071800;28;20091;-78
2023/04/04 09:00:06;;;;;;;2.00;1.80;;;14.10;74.50;;;;;;5071959;28;20466;-78
2023/04/04 09:02:56;;;;;;;3.00;2.05;;;14.50;78.90;;;;;;5071975;28;20201;-78
2023/04/04 09:05:24;;;;;;;2.60;2.40;;;14.70;74.80;;;;;;5072257;28;20052;-78
2023/04/04 09:07:50;;;;;;;2.65;1.90;;;15.10;78.50;;;;;;5071758;28;20043;-78
2023/04/04 09:10:16;;;;;;;2.33;1.60;;;15.30;75.10;;;;;;5071920;28;20486;-78
2023/04/04 09:12:46;;;;;;;3.05;2.00;;;15.50;75.80;;;;;;5072114;28;20048;-78
2023/04/04 09:15:12;;;;;;;3.80;2.42;;;14.90;69.40;;;;;;5071822;28;20048;-77
2023/04/04 09:17:39;;;;;;;2.30;2.03;;;14.90;74.40;;;;;;5071648;28;20049;-78
2023/04/04 09:20:43;;;;;;;3.75;1.88;;;15.00;75.60;;;;;;5070944;28;20068;-76
2023/04/04 09:23:15;;;;;;;6.45;2.40;;;15.20;63.40;;;;;;5073050;28;20060;-78
2023/04/04 09:25:52;;;;;;;5.43;2.20;;;15.20;71.50;;;;;;5075793;28;20128;-78
2023/04/04 09:28:18;;;;;;;2.92;2.00;;;15.30;71.20;;;;;;5075658;28;20151;-77
2023/04/04 09:30:47;;;;;;;4.20;2.15;;;15.40;73.40;;;;;;5075472;28;20044;-78
2023/04/04 09:33:15;;;;;;;4.40;1.90;;;14.70;69.70;;;;;;5075217;28;20072;-78
2023/04/04 09:35:48;;;;;;;7.22;1.98;;;15.30;72.80;;;;;;5075014;28;20040;-78
2023/04/04 09:38:14;;;;;;;5.85;2.78;;;15.50;70.80;;;;;;5075021;28;20054;-77
2023/04/04 09:40:41;;;;;;;2.75;2.53;;;15.30;72.00;;;;;;5075341;28;20122;-78
2023/04/04 09:43:08;;;;;;;3.55;1.73;;;16.00;73.00;;;;;;5075485;28;20053;-79
2023/04/04 09:45:35;;;;;;;2.83;2.55;;;15.40;71.40;;;;;;5074938;28;20075;-77
2023/04/04 09:48:01;;;;;;;3.72;1.65;;;14.90;70.10;;;;;;5090923;28;20049;-79
2023/04/04 09:50:29;;;;;;;5.05;1.92;;;14.70;70.20;;;;;;5074856;28;20084;-78
2023/04/04 09:52:58;;;;;;;2.70;1.50;;;14.80;69.30;;;;;;5074797;28;20131;-77
2023/04/04 09:55:54;;;;;;;3.63;1.48;;;15.40;69.30;;;;;;5074745;28;20048;-77
2023/04/04 09:58:27;;;;;;;2.70;1.95;;;15.10;60.10;;;;;;5073479;28;20141;-78
2023/04/04 10:00:58;;;;;;;;;;;14.90;63.10;;;;;;5073786;28;20052;-78
2023/04/04 10:03:24;;;;;;;2.95;1.77;;;14.30;58.50;;;;;;5074567;28;19920;-78
2023/04/04 10:06:11;;;;;;;1.80;1.65;;;13.40;65.20;;;;;;5073030;28;20052;-78
2023/04/04 10:08:40;;;;;;;3.92;2.15;;;14.00;64.70;;;;;;5074923;28;20067;-78
2023/04/04 10:11:06;;;;;;;3.40;1.85;;;14.40;70.60;;;;;;5077340;28;20465;-77
2023/04/04 10:13:34;;;;;;;2.88;1.83;;;15.10;71.00;;;;;;5075763;28;20055;-79
2023/04/04 10:16:02;;;;;;;2.97;1.58;;;14.90;63.20;;;;;;5074146;28;20059;-78
2023/04/04 10:18:30;;;;;;;3.35;1.85;;;14.20;69.10;;;;;;5074009;28;20048;-77
2023/04/04 10:21:01;;;;;;;1.95;1.77;;;14.10;68.50;;;;;;5074629;28;20070;-79
2023/04/04 10:23:27;;;;;;;2.97;2.08;;;14.60;69.10;;;;;;5074730;28;20061;-78
2023/04/04 10:25:55;;;;;;;4.35;2.00;;;15.10;69.90;;;;;;5075004;28;20119;-77
2023/04/04 10:28:22;;;;;;;4.00;2.28;;;14.00;59.50;;;;;;5073428;28;20386;-78
2023/04/04 10:31:08;;;;;;;3.78;1.98;;;14.70;66.00;;;;;;5073719;28;20044;-78
2023/04/04 10:34:03;;;;;;;4.03;2.30;;;15.70;66.80;;;;;;5072627;28;20052;-78
2023/04/04 10:36:43;;;;;;;4.40;2.20;;;16.30;65.70;;;;;;5065669;28;20057;-78
2023/04/04 10:39:47;;;;;;;3.08;2.20;;;16.70;65.40;;;;;;5073451;28;20347;-77
2023/04/04 10:42:17;;;;;;;2.22;1.83;;;16.80;63.70;;;;;;5074473;28;20074;-78
2023/04/04 10:44:44;;;;;;;4.90;2.20;;;16.20;64.60;;;;;;5074256;28;20049;-78
2023/04/04 10:47:16;;;;;;;3.78;2.08;;;15.50;65.90;;;;;;5073811;28;20045;-78
2023/04/04 10:49:46;;;;;;;3.75;1.63;;;14.90;65.90;;;;;;5073754;28;20485;-78
2023/04/04 10:52:14;;;;;;;6.15;2.53;;;14.90;66.90;;;;;;5073708;28;20440;-78
2023/04/04 10:54:42;;;;;;;3.55;2.40;;;14.30;67.80;;;;;;5073525;28;20044;-77
2023/04/04 10:57:09;;;;;;;3.03;2.72;;;13.10;63.20;;;;;;5073489;28;20481;-77
2023/04/04 10:59:57;;;;;;;2.80;2.00;;;12.70;68.40;;;;;;5073485;28;20049;-77
2023/04/04 11:02:51;;;;;;;2.58;1.95;;;12.10;62.80;;;;;;5073459;28;20052;-78
2023/04/04 11:05:36;;;;;;;3.72;2.33;;;12.00;66.30;;;;;;5064816;28;20061;-78
2023/04/04 11:08:01;;;;;;;2.65;2.08;;;12.00;66.70;;;;;;5073436;28;20121;-78
2023/04/04 11:10:34;;;;;;;5.30;2.50;;;11.30;67.00;;;;;;5073262;28;20107;-78
2023/04/04 11:13:08;;;;;;;4.93;2.35;;;11.20;67.60;;;;;;5073694;28;20174;-79
2023/04/04 11:16:00;;;;;;;2.95;2.00;;;11.30;68.40;;;;;;5073604;28;20130;-79
2023/04/04 11:18:41;;;;;;;4.18;2.78;;;11.40;69.20;;;;;;5073127;28;20102;-75
2023/04/04 11:21:09;;;;;;;3.45;2.20;;;11.20;65.00;;;;;;5073595;28;20063;-76
2023/04/04 11:24:01;;;;;;;5.20;2.85;;;11.00;67.60;;;;;;5072969;28;20083;-74
2023/04/04 11:26:33;;;;;;;3.00;2.45;;;10.60;62.80;;;;;;5062976;28;20061;-75
2023/04/04 11:29:03;;;;;;;3.72;2.38;;;10.50;68.60;;;;;;5073019;28;20051;-79
2023/04/04 11:31:33;;;;;;;3.30;2.33;;;10.50;68.10;;;;;;5072790;28;20040;-77
2023/04/04 11:34:06;;;;;;;3.38;2.17;;;10.50;69.00;;;;;;5072822;28;20060;-77
2023/04/04 11:36:38;;;;;;;3.08;2.47;;;10.20;64.10;;;;;;5072264;28;20036;-75
2023/04/04 11:39:29;;;;;;;3.15;2.85;;;10.00;65.10;;;;;;5072592;28;20099;-77
2023/04/04 11:42:07;;;;;;;3.28;2.40;;;9.70;65.20;;;;;;5073145;28;20055;-75
2023/04/04 11:44:39;;;;;;;3.20;2.00;;;10.10;68.70;;;;;;5072436;28;20052;-76
2023/04/04 11:47:04;;;;;;;3.70;1.95;;;10.20;68.60;;;;;;5073114;28;20041;-77
2023/04/04 11:49:34;;;;;;;3.63;1.80;;;10.10;67.30;;;;;;5072111;28;20082;-76
2023/04/04 11:52:08;;;;;;;3.83;2.25;;;10.20;68.80;;;;;;5072222;28;20047;-76
2023/04/04 11:54:36;;;;;;;3.40;2.42;;;10.30;67.70;;;;;;5072761;28;20051;-75
2023/04/04 11:57:02;;;;;;;3.50;1.98;;;10.20;67.20;;;;;;5072180;28;20044;-75
2023/04/04 11:59:29;;;;;;;3.28;2.38;;;9.90;64.40;;;;;;5072292;28;20427;-77
2023/04/04 12:01:55;;;;;;;3.15;2.45;;;10.00;66.30;;;;;;5072855;28;20060;-76
2023/04/04 12:04:22;;;;;;;4.07;2.13;;;9.90;66.00;;;;;;5072723;28;20446;-74
2023/04/04 12:06:53;;;;;;;2.90;1.92;;;10.00;66.50;;;;;;5072625;28;20087;-75
2023/04/04 12:09:19;;;;;;;5.90;2.70;;;10.30;68.20;;;;;;5071872;28;20063;-76
2023/04/04 12:11:47;;;;;;;4.15;2.35;;;10.50;68.10;;;;;;5072504;28;20044;-75
2023/04/04 12:14:20;;;;;;;5.07;3.22;;;10.50;66.00;;;;;;5071735;28;20458;-75
2023/04/04 12:16:53;;;;;;;3.08;2.15;;;10.50;67.10;;;;;;5071600;28;20517;-75
2023/04/04 12:19:19;;;;;;;4.55;2.40;;;10.30;66.50;;;;;;5072525;28;20098;-74
2023/04/04 12:21:45;;;;;;;2.63;2.10;;;10.30;66.60;;;;;;5072115;28;20060;-75
2023/04/04 12:24:11;;;;;;;6.05;3.00;;;10.20;68.50;;;;;;5071982;28;20091;-75
2023/04/04 12:26:40;;;;;;;5.68;2.10;;;10.10;68.10;;;;;;5071278;28;20048;-76
2023/04/04 12:29:11;;;;;;;4.20;2.50;;;10.20;68.30;;;;;;5071878;28;20048;-75
2023/04/04 12:31:40;;;;;;;3.35;2.88;;;10.30;67.10;;;;;;5072191;28;20049;-76
2023/04/04 12:34:07;;;;;;;3.28;2.20;;;10.10;68.30;;;;;;5071980;28;20466;-75
2023/04/04 12:36:38;;;;;;;3.85;2.42;;;10.00;68.20;;;;;;5072007;28;20036;-75
2023/04/04 12:39:07;;;;;;;3.67;2.25;;;10.00;66.40;;;;;;5071099;28;20420;-74
2023/04/04 12:41:34;;;;;;;6.10;2.80;;;10.10;68.40;;;;;;5070483;28;20122;-76
2023/04/04 12:44:02;;;;;;;4.20;2.75;;;10.10;68.00;;;;;;5071854;28;20132;-75
2023/04/04 12:46:34;;;;;;;4.43;2.40;;;10.00;66.00;;;;;;5071772;28;20044;-76
2023/04/04 12:48:59;;;;;;;10.57;2.85;;;9.90;68.50;;;;;;5071743;28;20095;-75
2023/04/04 12:51:34;;;;;;;3.53;2.40;;;9.80;66.90;;;;;;5071679;28;20045;-75
2023/04/04 12:54:01;;;;;;;3.72;2.97;;;9.90;66.50;;;;;;5071638;28;20055;-74
2023/04/04 12:56:27;;;;;;;3.60;2.90;;;9.80;65.00;;;;;;5071413;28;20091;-75